• Join FlightAware (Why Join?)
  • Login
  • US Flag 
06:41PM EDT


 

Airport Tracker/Info


-or-


 

Live Flight TrackerFlight Track Log ✈ UPS105 ✈ 19-Jun-2013 ✈ RJBB / KIX - PANC

Flight Track Log - Related Links

Times and Time Zones

All times are in EDT time to prevent confusion due to time zone crossing. See the UPS105 flight status page for this flight to view local times or setup timezone preferences in your user account.

Time Position Orientation Groundspeed Altitude Reporting Facility
EDT Latitude Longitude Course Direction KTS MPH feet Rate Location/Type
09:37AM 34.4610 135.2890 46° Northeast 214 246 2,100  Level FlightAware
09:38AM 34.4860 135.3130 38° Northeast 248 285 2,800 1,620 Climbing FlightAware
09:38AM 34.5140 135.3070 350° North 248 285 3,600 1,920 Climbing FlightAware
09:39AM 34.5420 135.2870 330° Northwest 256 295 4,600 2,100 Climbing FlightAware
09:39AM 34.5480 135.2730 297° West 250 288 5,000 2,640 Climbing FlightAware
09:39AM 34.5500 135.2530 277° West 247 284 5,700 2,520 Climbing FlightAware
09:40AM 34.5570 135.2120 282° West 249 287 6,900 2,160 Climbing FlightAware
09:40AM 34.5450 135.1610 254° West 254 292 8,300 2,040 Climbing FlightAware
09:41AM 34.5290 135.1480 214° Southwest 263 303 8,800 2,040 Climbing FlightAware
09:41AM 34.5130 135.1380 207° Southwest 265 305 9,300 1,800 Climbing FlightAware
09:42AM 34.4700 135.1130 206° Southwest 275 316 10,500 1,380 Climbing FlightAware
09:42AM 34.4110 135.0800 205° Southwest 319 367 11,300 1,020 Climbing FlightAware
09:43AM 34.3460 135.0430 205° Southwest 362 417 12,100 1,620 Climbing FlightAware
09:44AM 34.2900 135.0150 202° Southwest 382 440 13,500 2,280 Climbing FlightAware
09:44AM 34.2160 135.0230 175° South 408 470 15,100 1,980 Climbing FlightAware
09:45AM 34.1490 135.0410 167° South 415 478 16,300 1,920 Climbing FlightAware
09:46AM 34.0420 135.0710 167° South 442 509 18,000 1,920 Climbing FlightAware
09:46AM 33.9740 135.0890 168° South 444 511 19,000 1,560 Climbing FlightAware
09:47AM 33.8800 135.1520 151° Southeast 493 567 20,200 1,320 Climbing FlightAware
09:48AM 33.8310 135.2250 129° Southeast 496 571 21,200 1,560 Climbing FlightAware
09:49AM 33.7470 135.3500 129° Southeast 514 592 22,700 1,680 Climbing FlightAware
09:50AM 33.6740 135.4600 129° Southeast 523 602 23,800 1,200 Climbing FlightAware
09:50AM 33.6120 135.5520 129° Southeast 531 611 24,700 1,320 Climbing FlightAware
09:51AM 33.5210 135.6860 129° Southeast 540 621 26,000 1,380 Climbing FlightAware
09:52AM 33.4750 135.7760 121° Southeast 547 629 26,700 1,500 Climbing FlightAware
09:52AM 33.4650 135.8340 102° East 543 625 27,400 2,100 Climbing FlightAware
09:53AM 33.4770 135.9420 82° East 530 610 28,700 1,800 Climbing FlightAware
09:54AM 33.5010 136.0720 77° East 524 603 29,900 1,440 Climbing FlightAware
09:54AM 33.5150 136.1410 76° East 523 602 30,400 900 Climbing FlightAware
09:55AM 33.5400 136.2670 77° East 527 606 31,000 420 Climbing FlightAware
09:55AM 33.5620 136.3780 77° East 528 608 31,000  Level FlightAware
09:56AM 33.5850 136.4980 77° East 531 611 31,000 480 Level FlightAware
09:57AM 33.6110 136.6370 77° East 528 608 31,800 1,020 Climbing FlightAware
09:58AM 33.6320 136.7460 77° East 527 606 32,500 900 Climbing FlightAware
09:58AM 33.6560 136.8720 77° East 526 605 33,100 840 Climbing FlightAware
09:59AM 33.6750 136.9760 78° East 526 605 33,700 900 Climbing FlightAware
10:00AM 33.6970 137.0930 77° East 523 602 34,300 780 Climbing FlightAware
10:00AM 33.7210 137.2250 78° East 522 601 34,900 420 Climbing FlightAware
10:01AM 33.7450 137.3500 77° East 523 602 35,000 60 Climbing FlightAware
10:02AM 33.7670 137.4520 75° East 520 598 35,000  Level FlightAware
10:02AM 33.8220 137.5570 58° Northeast 516 594 35,000  Level FlightAware
10:03AM 33.8730 137.6610 59° Northeast 520 598 35,000  Level FlightAware
10:04AM 33.9220 137.7650 60° Northeast 516 594 35,000  Level FlightAware
10:04AM 33.9580 137.8360 59° Northeast 521 600 35,000  Level FlightAware
10:05AM 34.0130 137.9420 58° Northeast 521 600 35,000  Level FlightAware
10:06AM 34.0690 138.0460 57° Northeast 522 601 35,000  Level FlightAware
10:06AM 34.1220 138.1460 57° Northeast 521 600 35,000  Level FlightAware
10:07AM 34.1720 138.2380 57° Northeast 522 601 35,000  Level FlightAware
10:08AM 34.2270 138.3410 57° Northeast 522 601 35,000  Level FlightAware
10:09AM 34.2900 138.4600 57° Northeast 518 596 35,000  Level FlightAware
10:09AM 34.3370 138.5480 57° Northeast 519 597 35,000  Level FlightAware
10:10AM 34.4170 138.6990 57° Northeast 520 598 35,000  Level FlightAware
10:11AM 34.4770 138.8140 58° Northeast 521 600 35,000  Level FlightAware
10:12AM 34.5270 138.9090 57° Northeast 522 601 35,000  Level FlightAware
10:13AM 34.6320 139.1100 58° Northeast 522 601 35,000  Level FlightAware
10:14AM 34.6900 139.2210 58° Northeast 523 602 35,000  Level FlightAware
10:14AM 34.7420 139.3230 58° Northeast 525 604 35,000  Level FlightAware
10:15AM 34.8230 139.4790 58° Northeast 525 604 35,000  Level FlightAware
10:16AM 34.8840 139.5990 58° Northeast 527 606 35,000  Level FlightAware
10:17AM 34.9270 139.6830 58° Northeast 529 609 35,000  Level FlightAware
10:17AM 34.9800 139.7860 58° Northeast 528 608 35,000  Level FlightAware
10:18AM 35.0310 139.8800 56° Northeast 526 605 35,000  Level FlightAware
10:19AM 35.0920 139.9830 54° Northeast 524 603 35,000  Level FlightAware
10:19AM 35.1530 140.0820 53° Northeast 529 609 35,000  Level FlightAware
10:20AM 35.2410 140.2210 52° Northeast 528 608 35,000  Level FlightAware
10:21AM 35.3020 140.3170 52° Northeast 530 610 35,000  Level FlightAware
10:22AM 35.3700 140.4250 52° Northeast 530 610 35,000  Level FlightAware
10:22AM 35.4310 140.5210 52° Northeast 530 610 35,000  Level FlightAware
10:23AM 35.4850 140.6090 53° Northeast 530 610 35,000  Level FlightAware
10:24AM 35.5570 140.7230 52° Northeast 532 612 35,000  Level FlightAware
10:25AM 35.6130 140.8150 53° Northeast 533 613 35,000  Level FlightAware
10:25AM 35.6830 140.9280 53° Northeast 535 616 35,000  Level FlightAware
10:26AM 35.7400 141.0210 53° Northeast 536 617 35,000  Level FlightAware
10:27AM 35.8040 141.1240 53° Northeast 538 619 35,000  Level FlightAware
10:27AM 35.8460 141.1930 53° Northeast 539 620 35,000  Level FlightAware
10:28AM 35.9140 141.3040 53° Northeast 540 621 35,000  Level FlightAware
10:29AM 35.9780 141.4080 53° Northeast 542 624 35,000  Level FlightAware
10:29AM 36.0300 141.4950 54° Northeast 544 626 35,000  Level FlightAware
10:30AM 36.1020 141.6140 53° Northeast 544 626 35,000  Level FlightAware
10:31AM 36.1630 141.7140 53° Northeast 546 628 35,000  Level FlightAware
10:31AM 36.2070 141.7870 53° Northeast 546 628 35,000  Level FlightAware
10:32AM 36.2640 141.8820 53° Northeast 549 632 35,000  Level FlightAware
10:33AM 36.3340 142.0000 54° Northeast 550 633 35,000  Level FlightAware
10:33AM 36.3900 142.0920 53° Northeast 551 634 35,000  Level FlightAware
10:34AM 36.4880 142.2580 54° Northeast 551 634 35,000  Level FlightAware
10:35AM 36.5410 142.3470 53° Northeast 552 635 35,000  Level FlightAware
10:36AM 36.6080 142.4600 54° Northeast 553 636 35,000  Level FlightAware
10:36AM 36.6670 142.5610 54° Northeast 553 636 35,000  Level FlightAware
10:37AM 36.7790 142.7510 54° Northeast 555 639 35,000  Level FlightAware
10:38AM 36.8340 142.8450 54° Northeast 555 639 35,000  Level FlightAware
10:39AM 36.9050 142.9670 54° Northeast 554 638 35,000  Level FlightAware
10:40AM 36.9660 143.0730 54° Northeast 553 636 35,000  Level FlightAware
10:41AM 37.0770 143.2650 54° Northeast 555 639 35,000  Level FlightAware
10:42AM 37.1480 143.3890 54° Northeast 556 640 35,000  Level FlightAware
10:42AM 37.2280 143.5280 54° Northeast 556 640 35,000  Level FlightAware
10:43AM 37.2870 143.6320 54° Northeast 556 640 35,000  Level FlightAware
10:44AM 37.3420 143.7290 54° Northeast 556 640 35,000  Level FlightAware
10:44AM 37.3910 143.8170 55° Northeast 556 640 35,000  Level FlightAware
10:45AM 37.4230 143.8760 56° Northeast 556 640 35,000  Level FlightAware
10:46AM 37.5210 144.0520 55° Northeast 556 640 35,000  Level FlightAware
10:47AM 37.5830 144.1630 55° Northeast 556 640 35,000  Level FlightAware
10:50AM 37.8515 144.4239 37° Northeast  Level Estimated
10:51AM 37.9560 144.5261 38° Northeast  Level Estimated
10:52AM 38.0603 144.6286 38° Northeast  Level Estimated
10:53AM 38.1646 144.7314 38° Northeast  Level Estimated
10:54AM 38.2688 144.8344 38° Northeast  Level Estimated
10:55AM 38.3729 144.9378 38° Northeast  Level Estimated
10:56AM 38.4769 145.0414 38° Northeast  Level Estimated
10:57AM 38.5808 145.1454 38° Northeast  Level Estimated
10:58AM 38.6847 145.2496 38° Northeast  Level Estimated
10:59AM 38.7884 145.3542 38° Northeast  Level Estimated
11:00AM 38.8921 145.4590 38° Northeast  Level Estimated
11:01AM 38.9956 145.5642 38° Northeast  Level Estimated
11:02AM 39.0990 145.6697 38° Northeast  Level Estimated
11:03AM 39.2024 145.7755 38° Northeast  Level Estimated
11:04AM 39.3057 145.8815 38° Northeast  Level Estimated
11:05AM 39.4088 145.9880 39° Northeast  Level Estimated
11:06AM 39.5119 146.0947 39° Northeast  Level Estimated
11:07AM 39.6149 146.2017 39° Northeast  Level Estimated
11:08AM 39.7177 146.3091 39° Northeast  Level Estimated
11:09AM 39.8205 146.4168 39° Northeast  Level Estimated
11:10AM 39.9232 146.5248 39° Northeast  Level Estimated
11:11AM 40.0257 146.6331 39° Northeast  Level Estimated
11:12AM 40.1282 146.7417 39° Northeast  Level Estimated
11:13AM 40.2306 146.8507 39° Northeast  Level Estimated
11:14AM 40.3329 146.9600 39° Northeast  Level Estimated
11:15AM 40.4350 147.0697 39° Northeast  Level Estimated
11:16AM 40.5371 147.1797 39° Northeast  Level Estimated
11:17AM 40.6390 147.2900 39° Northeast  Level Estimated
11:18AM 40.7409 147.4006 39° Northeast  Level Estimated
11:19AM 40.8426 147.5116 40° Northeast  Level Estimated
11:20AM 40.9443 147.6229 40° Northeast  Level Estimated
11:21AM 41.0458 147.7346 40° Northeast  Level Estimated
11:22AM 41.1472 147.8466 40° Northeast  Level Estimated
11:23AM 41.2485 147.9590 40° Northeast  Level Estimated
11:24AM 41.3497 148.0717 40° Northeast  Level Estimated
11:25AM 41.4508 148.1848 40° Northeast  Level Estimated
11:26AM 41.5518 148.2982 40° Northeast  Level Estimated
11:27AM 41.6527 148.4119 40° Northeast  Level Estimated
11:28AM 41.7534 148.5261 40° Northeast  Level Estimated
11:29AM 41.8541 148.6406 40° Northeast  Level Estimated
11:30AM 41.9546 148.7554 40° Northeast  Level Estimated
11:31AM 42.0550 148.8706 40° Northeast  Level Estimated
11:32AM 42.1553 148.9862 40° Northeast  Level Estimated
11:33AM 42.2555 149.1021 41° Northeast  Level Estimated
11:34AM 42.3555 149.2184 41° Northeast  Level Estimated
11:35AM 42.4555 149.3351 41° Northeast  Level Estimated
11:36AM 42.5553 149.4522 41° Northeast  Level Estimated
11:37AM 42.6550 149.5696 41° Northeast  Level Estimated
11:38AM 42.7546 149.6874 41° Northeast  Level Estimated
11:39AM 42.8541 149.8056 41° Northeast  Level Estimated
11:40AM 42.9534 149.9242 41° Northeast  Level Estimated
11:41AM 43.0527 150.0431 41° Northeast  Level Estimated
11:42AM 43.1518 150.1624 41° Northeast  Level Estimated
11:43AM 43.2508 150.2822 41° Northeast  Level Estimated
11:44AM 43.3496 150.4023 41° Northeast  Level Estimated
11:45AM 43.4483 150.5228 42° Northeast  Level Estimated
11:46AM 43.5469 150.6437 42° Northeast  Level Estimated
11:47AM 43.6454 150.7650 42° Northeast  Level Estimated
11:48AM 43.7437 150.8866 42° Northeast  Level Estimated
11:49AM 43.8419 151.0087 42° Northeast  Level Estimated
11:50AM 43.9400 151.1312 42° Northeast  Level Estimated
11:51AM 44.0380 151.2541 42° Northeast  Level Estimated
11:52AM 44.1358 151.3774 42° Northeast  Level Estimated
11:53AM 44.2335 151.5011 42° Northeast  Level Estimated
11:54AM 44.3310 151.6253 42° Northeast  Level Estimated
11:55AM 44.4284 151.7498 42° Northeast  Level Estimated
11:56AM 44.5257 151.8748 42° Northeast  Level Estimated
11:57AM 44.6229 152.0001 43° Northeast  Level Estimated
11:58AM 44.7199 152.1259 43° Northeast  Level Estimated
11:59AM 44.8167 152.2521 43° Northeast  Level Estimated
12:00PM 44.9135 152.3788 43° Northeast  Level Estimated
12:01PM 45.0101 152.5058 43° Northeast  Level Estimated
12:02PM 45.1065 152.6333 43° Northeast  Level Estimated
12:03PM 45.2028 152.7612 43° Northeast  Level Estimated
12:04PM 45.2990 152.8896 43° Northeast  Level Estimated
12:05PM 45.3950 153.0184 43° Northeast  Level Estimated
12:06PM 45.4909 153.1476 43° Northeast  Level Estimated
12:07PM 45.5866 153.2773 43° Northeast  Level Estimated
12:08PM 45.6822 153.4074 44° Northeast  Level Estimated
12:09PM 45.7776 153.5379 44° Northeast  Level Estimated
12:10PM 45.8729 153.6690 44° Northeast  Level Estimated
12:11PM 45.9680 153.8004 44° Northeast  Level Estimated
12:12PM 46.0630 153.9323 44° Northeast  Level Estimated
12:13PM 46.1578 154.0647 44° Northeast  Level Estimated
12:14PM 46.2525 154.1975 44° Northeast  Level Estimated
12:15PM 46.3470 154.3308 44° Northeast  Level Estimated
12:16PM 46.4414 154.4645 44° Northeast  Level Estimated
12:17PM 46.5356 154.5987 44° Northeast  Level Estimated
12:18PM 46.6296 154.7334 44° Northeast  Level Estimated
12:19PM 46.7235 154.8685 45° Northeast  Level Estimated
12:20PM 46.8172 155.0042 45° Northeast  Level Estimated
12:21PM 46.9108 155.1402 45° Northeast  Level Estimated
12:22PM 47.0042 155.2768 45° Northeast  Level Estimated
12:23PM 47.0975 155.4138 45° Northeast  Level Estimated
12:24PM 47.1906 155.5513 45° Northeast  Level Estimated
12:25PM 47.2835 155.6893 45° Northeast  Level Estimated
12:26PM 47.3762 155.8278 45° Northeast  Level Estimated
12:27PM 47.4688 155.9668 45° Northeast  Level Estimated
12:27PM 48.0333 160.1667 54° Northeast 543 625 35,000  Level Anchorage Center
12:28PM 47.5612 156.1063 45° Northeast  Level Estimated
12:29PM 47.6535 156.2462 46° Northeast  Level Estimated
12:30PM 47.7455 156.3867 46° Northeast  Level Estimated
12:30PM 48.2833 160.6833 52° Northeast 538 619 35,000  Level Anchorage Center
12:31PM 47.8374 156.5276 46° Northeast  Level Estimated
12:32PM 47.9291 156.6691 46° Northeast  Level Estimated
12:33PM 48.0207 156.8110 46° Northeast  Level Estimated
12:34PM 48.6292 161.3638 53° Northeast 543 625 35,000  Level FlightAware Transoceanic
12:35PM 48.7150 161.5354 53° Northeast 543 625 35,000  Level FlightAware Transoceanic
12:36PM 48.8083 161.7232 53° Northeast 538 619 35,000  Level FlightAware Transoceanic
12:36PM 48.8833 161.9500 53° Northeast 533 613 35,000  Level Anchorage Center
12:37PM 48.8949 161.8986 53° Northeast 538 619 35,000  Level FlightAware Transoceanic
12:38PM 48.9812 162.0746 53° Northeast 538 619 35,000  Level FlightAware Transoceanic
12:39PM 49.0672 162.2513 53° Northeast 538 619 35,000  Level FlightAware Transoceanic
12:40PM 49.1530 162.4285 54° Northeast 538 619 35,000  Level FlightAware Transoceanic
12:41PM 49.2385 162.6064 54° Northeast 538 619 35,000  Level FlightAware Transoceanic
12:42PM 49.3237 162.7849 54° Northeast 538 619 35,000  Level FlightAware Transoceanic
12:43PM 49.4728 163.1684 54° Northeast 533 613 35,000  Level FlightAware Transoceanic
12:44PM 49.5560 163.3448 54° Northeast 533 613 35,000  Level FlightAware Transoceanic
12:45PM 49.6388 163.5218 54° Northeast 533 613 35,000  Level FlightAware Transoceanic
12:46PM 49.7214 163.6995 54° Northeast 533 613 35,000  Level FlightAware Transoceanic
12:46PM 49.6667 163.7167 54° Northeast 493 567 35,000  Level Anchorage Center
12:47PM 49.8038 163.8777 54° Northeast 533 613 35,000  Level FlightAware Transoceanic
12:48PM 49.8858 164.0566 55° Northeast 533 613 35,000  Level FlightAware Transoceanic
12:49PM 49.9676 164.2360 55° Northeast 533 613 35,000  Level FlightAware Transoceanic
12:50PM 50.0491 164.4161 55° Northeast 533 613 35,000  Level FlightAware Transoceanic
12:51PM 50.1304 164.5968 55° Northeast 533 613 35,000  Level FlightAware Transoceanic
12:52PM 50.1533 164.7710 55° Northeast 493 567 35,000  Level FlightAware Transoceanic
12:53PM 50.2335 164.9488 55° Northeast 493 567 35,000  Level FlightAware Transoceanic
12:54PM 50.3134 165.1272 55° Northeast 493 567 35,000  Level FlightAware Transoceanic
12:55PM 50.3930 165.3062 55° Northeast 493 567 35,000  Level FlightAware Transoceanic
12:55PM 50.3667 165.4333 55° Northeast 514 592 35,000  Level Anchorage Center
12:56PM 50.4724 165.4857 55° Northeast 493 567 35,000  Level FlightAware Transoceanic
12:56PM 50.4000 165.5167 55° Northeast 499 574 35,000  Level Anchorage Center
12:57PM 50.5515 165.6659 55° Northeast 493 567 35,000  Level FlightAware Transoceanic
12:58PM 50.6303 165.8467 56° Northeast 493 567 35,000  Level FlightAware Transoceanic
12:59PM 50.7088 166.0282 56° Northeast 493 567 35,000  Level FlightAware Transoceanic
01:00PM 50.7870 166.2102 56° Northeast 493 567 35,000  Level FlightAware Transoceanic
01:01PM 50.8650 166.3928 56° Northeast 493 567 35,000  Level FlightAware Transoceanic
01:02PM 50.8528 166.5287 55° Northeast 514 592 35,000  Level FlightAware Transoceanic
01:03PM 50.9597 166.7842 56° Northeast 499 574 35,000  Level FlightAware Transoceanic
01:04PM 51.0385 166.9677 56° Northeast 499 574 35,000  Level FlightAware Transoceanic
01:05PM 51.1170 167.1519 56° Northeast 499 574 35,000  Level FlightAware Transoceanic
01:05PM 51.0833 167.2333 55° Northeast 504 580 35,000  Level Anchorage Center
01:06PM 51.1953 167.3367 56° Northeast 499 574 35,000  Level FlightAware Transoceanic
01:07PM 51.2732 167.5222 56° Northeast 499 574 35,000  Level FlightAware Transoceanic
01:08PM 51.3509 167.7082 56° Northeast 499 574 35,000  Level FlightAware Transoceanic
01:09PM 51.4282 167.8949 56° Northeast 499 574 35,000  Level FlightAware Transoceanic
01:10PM 51.5053 168.0822 57° Northeast 499 574 35,000  Level FlightAware Transoceanic
01:10PM 51.4333 168.2000 57° Northeast 520 598 35,000  Level Anchorage Center
01:11PM 51.5541 168.3364 56° Northeast 504 580 35,000  Level FlightAware Transoceanic
01:11PM 51.5000 168.3667 57° Northeast 510 587 35,000  Level Anchorage Center
01:12PM 51.6315 168.5224 56° Northeast 504 580 35,000  Level FlightAware Transoceanic
01:12PM 51.5667 168.5833 64° Northeast 520 598 35,000  Level Anchorage Center
01:13PM 51.7086 168.7091 56° Northeast 504 580 35,000  Level FlightAware Transoceanic
01:13PM 51.6333 168.7667 60° Northeast 510 587 35,000  Level Anchorage Center
01:14PM 51.7855 168.8964 57° Northeast 504 580 35,000  Level FlightAware Transoceanic
01:14PM 51.7167 168.9833 58° Northeast 520 598 35,000  Level Anchorage Center
01:15PM 51.8620 169.0844 57° Northeast 504 580 35,000  Level FlightAware Transoceanic
01:15PM 51.7833 169.2000 63° Northeast 530 610 35,000  Level Anchorage Center
01:16PM 51.8500 169.3833 59° Northeast 520 598 35,000  Level Anchorage Center
01:17PM 51.9333 169.6000 58° Northeast 510 587 35,000  Level Anchorage Center
01:18PM 51.9833 169.7667 64° Northeast 530 610 35,000  Level Anchorage Center
01:19PM 52.0667 169.9833 58° Northeast 520 598 35,000  Level Anchorage Center
01:20PM 52.1333 170.1667 59° Northeast 520 598 35,000  Level Anchorage Center
01:21PM 52.2000 170.4000 65° Northeast 520 598 35,000  Level Anchorage Center
01:22PM 52.2833 170.6167 58° Northeast 520 598 35,000  Level Anchorage Center
01:23PM 52.3500 170.7833 57° Northeast 520 598 35,000  Level Anchorage Center
01:24PM 52.4500 170.9833 51° Northeast 530 610 35,000 300 Level Anchorage Center
01:25PM 52.5333 171.1500 51° Northeast 520 598 35,700 960 Climbing Anchorage Center
01:26PM 52.6000 171.3167 57° Northeast 510 587 37,000 600 Climbing Anchorage Center
01:27PM 52.6833 171.5333 58° Northeast 510 587 37,000  Level Anchorage Center
01:28PM 52.7833 171.7333 50° Northeast 520 598 37,000  Level Anchorage Center
01:29PM 52.8500 171.9167 59° Northeast 520 598 37,000  Level Anchorage Center
01:30PM 52.9333 172.1167 55° Northeast 500 575 37,000  Level Anchorage Center
01:31PM 53.0167 172.2833 50° Northeast 510 587 37,000  Level Anchorage Center
01:32PM 53.1000 172.5000 57° Northeast 520 598 37,000  Level Anchorage Center
01:33PM 53.2000 172.7167 52° Northeast 510 587 37,000  Level Anchorage Center
01:34PM 53.2667 172.8833 56° Northeast 520 598 37,000  Level Anchorage Center
01:35PM 53.3500 173.1000 57° Northeast 510 587 37,000  Level Anchorage Center
01:36PM 53.4167 173.2667 56° Northeast 520 598 37,000  Level Anchorage Center
01:37PM 53.5000 173.4833 57° Northeast 510 587 37,000  Level Anchorage Center
01:38PM 53.5667 173.6667 58° Northeast 500 575 37,000  Level Anchorage Center
01:39PM 53.6667 173.8833 52° Northeast 510 587 37,000  Level Anchorage Center
01:40PM 53.7167 174.0500 63° Northeast 500 575 37,000  Level Anchorage Center
01:41PM 53.8000 174.2667 57° Northeast 490 564 37,000  Level Anchorage Center
01:42PM 53.8667 174.4500 58° Northeast 500 575 37,000  Level Anchorage Center
01:43PM 53.9500 174.6667 57° Northeast 510 587 37,000  Level Anchorage Center
01:44PM 54.0167 174.8500 58° Northeast 500 575 37,000  Level Anchorage Center
01:45PM 54.1000 175.0667 57° Northeast 500 575 37,000  Level Anchorage Center
01:46PM 54.1667 175.2833 62° Northeast 490 564 37,000  Level Anchorage Center
01:47PM 54.2333 175.4500 56° Northeast 490 564 37,000  Level Anchorage Center
01:48PM 54.3167 175.6833 58° Northeast 490 564 37,000  Level Anchorage Center
01:49PM 54.3833 175.8500 55° Northeast 490 564 37,000  Level Anchorage Center
01:50PM 54.4500 176.0667 62° Northeast 490 564 37,000  Level Anchorage Center
01:51PM 54.5167 176.2500 58° Northeast 490 564 37,000  Level Anchorage Center
01:52PM 54.5833 176.4833 64° Northeast 500 575 37,000  Level Anchorage Center
01:53PM 54.6500 176.6500 55° Northeast 490 564 37,000  Level Anchorage Center
01:54PM 54.7333 176.8833 58° Northeast 500 575 37,000  Level Anchorage Center
01:55PM 54.7833 177.0500 62° Northeast 490 564 37,000  Level Anchorage Center
01:56PM 54.8667 177.2833 58° Northeast 490 564 37,000  Level Anchorage Center
01:57PM 54.9333 177.5000 62° Northeast 490 564 37,000  Level Anchorage Center
01:58PM 55.0000 177.6833 58° Northeast 490 564 37,000  Level Anchorage Center
01:59PM 55.0667 177.9167 63° Northeast 490 564 37,000  Level Anchorage Center
02:00PM 55.1167 178.1000 64° Northeast 510 587 37,000  Level Anchorage Center
02:02PM 55.2167 178.4088 60° Northeast  Level FlightAware Approximate
02:03PM 55.3000 178.6167 61° Northeast 476 548 37,000  Level Anchorage Center
02:04PM 55.3000 178.6167 61° Northeast 476 548 37,000  Level Anchorage Center
02:09PM 55.6642 179.8109 62° Northeast 476 548 37,000  Level FlightAware Transoceanic
02:10PM 55.7238 -179.9879 62° Northeast 476 548 37,000  Level FlightAware Transoceanic
02:11PM 55.7830 -179.7860 63° Northeast 476 548 37,000  Level FlightAware Transoceanic
02:12PM 55.8419 -179.5836 63° Northeast 476 548 37,000  Level FlightAware Transoceanic
02:12PM 55.9000 -179.3833 63° Northeast 471 542 37,000  Level Anchorage Center
02:13PM 55.9005 -179.3806 63° Northeast 476 548 37,000  Level FlightAware Transoceanic
02:14PM 55.9587 -179.1770 63° Northeast 476 548 37,000  Level FlightAware Transoceanic
02:15PM 56.0166 -178.9727 63° Northeast 476 548 37,000  Level FlightAware Transoceanic
02:16PM 56.0742 -178.7678 63° Northeast 476 548 37,000  Level FlightAware Transoceanic
02:17PM 56.1314 -178.5623 64° Northeast 476 548 37,000  Level FlightAware Transoceanic
02:18PM 56.1883 -178.3562 64° Northeast 476 548 37,000  Level FlightAware Transoceanic
02:19PM 56.2911 -177.9800 64° Northeast 471 542 37,000  Level FlightAware Transoceanic
02:20PM 56.3456 -177.7772 64° Northeast 471 542 37,000  Level FlightAware Transoceanic
02:21PM 56.3998 -177.5738 64° Northeast 471 542 37,000  Level FlightAware Transoceanic
02:22PM 56.4537 -177.3698 65° Northeast 471 542 37,000  Level FlightAware Transoceanic
02:22PM 56.4500 -177.3500 64° Northeast 464 534 37,000  Level Anchorage Center
02:23PM 56.5073 -177.1653 65° Northeast 471 542 37,000  Level FlightAware Transoceanic
02:24PM 56.5605 -176.9602 65° Northeast 471 542 37,000  Level FlightAware Transoceanic
02:25PM 56.6134 -176.7545 65° Northeast 471 542 37,000  Level FlightAware Transoceanic
02:26PM 56.6659 -176.5482 65° Northeast 471 542 37,000  Level FlightAware Transoceanic
02:27PM 56.7181 -176.3414 65° Northeast 471 542 37,000  Level FlightAware Transoceanic
02:27PM 56.7167 -176.3000 65° Northeast 458 527 37,000  Level Anchorage Center
02:28PM 56.7668 -176.1180 65° Northeast 464 534 37,000  Level FlightAware Transoceanic
02:29PM 56.8184 -175.9106 66° East 464 534 37,000  Level FlightAware Transoceanic
02:30PM 56.8697 -175.7027 66° East 464 534 37,000  Level FlightAware Transoceanic
02:31PM 56.9206 -175.4942 66° East 464 534 37,000  Level FlightAware Transoceanic
02:31PM 56.9667 -175.3167 66° East 452 520 37,000  Level Anchorage Center
02:32PM 56.9712 -175.2852 66° East 464 534 37,000  Level FlightAware Transoceanic
02:33PM 57.0226 -175.0563 66° East 458 527 37,000  Level FlightAware Transoceanic
02:33PM 57.0333 -174.9833 67° East 460 529 37,000  Level Anchorage Center
02:34PM 57.0724 -174.8471 66° East 458 527 37,000  Level FlightAware Transoceanic
02:34PM 57.0833 -174.7833 65° Northeast 450 518 37,000  Level Anchorage Center
02:35PM 57.1218 -174.6372 67° East 458 527 37,000  Level FlightAware Transoceanic
02:35PM 57.1333 -174.5667 67° East 440 506 37,000  Level Anchorage Center
02:36PM 57.1709 -174.4269 67° East 458 527 37,000  Level FlightAware Transoceanic
02:36PM 57.1833 -174.3500 67° East 450 518 37,000  Level Anchorage Center
02:37PM 57.2196 -174.2159 67° East 458 527 37,000  Level FlightAware Transoceanic
02:37PM 57.2167 -174.1333 74° East 450 518 37,000  Level Anchorage Center
02:38PM 57.2642 -174.0418 67° East 452 520 37,000  Level FlightAware Transoceanic
02:38PM 57.2667 -173.9167 67° East 450 518 37,000  Level Anchorage Center
02:39PM 57.3167 -173.7000 67° East 450 518 37,000  Level Anchorage Center
02:40PM 57.3667 -173.4833 67° East 450 518 37,000  Level Anchorage Center
02:41PM 57.4167 -173.2667 67° East 450 518 37,000  Level Anchorage Center
02:42PM 57.4667 -173.0667 65° Northeast 440 506 37,000  Level Anchorage Center
02:43PM 57.5167 -172.8500 67° East 450 518 37,000  Level Anchorage Center
02:44PM 57.5500 -172.6333 74° East 440 506 37,000  Level Anchorage Center
02:45PM 57.6000 -172.4167 67° East 440 506 37,000  Level Anchorage Center
02:46PM 57.6500 -172.2000 67° East 450 518 37,000  Level Anchorage Center
02:47PM 57.7000 -171.9833 67° East 440 506 37,000  Level Anchorage Center
02:48PM 57.7500 -171.7500 68° East 450 518 37,000  Level Anchorage Center
02:49PM 57.7833 -171.5333 74° East 440 506 37,000  Level Anchorage Center
02:50PM 57.8333 -171.3167 66° East 450 518 37,000  Level Anchorage Center
02:51PM 57.8667 -171.1500 69° East 440 506 37,000  Level Anchorage Center
02:52PM 57.9167 -170.8833 70° East 430 495 37,000  Level Anchorage Center
02:53PM 57.9500 -170.7000 71° East 430 495 37,000  Level Anchorage Center
02:54PM 58.0000 -170.5000 65° Northeast 440 506 37,000  Level Anchorage Center
02:55PM 58.0500 -170.2833 66° East 440 506 37,000  Level Anchorage Center
02:56PM 58.1000 -170.0667 66° East 440 506 37,000  Level Anchorage Center
02:57PM 58.1333 -169.8333 75° East 440 506 37,000  Level Anchorage Center
02:58PM 58.1833 -169.6333 65° Northeast 430 495 37,000  Level Anchorage Center
02:59PM 58.2333 -169.4167 66° East 440 506 37,000  Level Anchorage Center
03:00PM 58.2667 -169.2000 74° East 430 495 37,000  Level Anchorage Center
03:01PM 58.3167 -168.9833 66° East 430 495 37,000  Level Anchorage Center
03:02PM 58.3667 -168.7667 66° East 430 495 37,000  Level Anchorage Center
03:03PM 58.4000 -168.5500 74° East 430 495 37,000  Level Anchorage Center
03:04PM 58.4500 -168.3333 66° East 430 495 37,000  Level Anchorage Center
03:05PM 58.4833 -168.1167 74° East 420 483 37,000  Level Anchorage Center
03:06PM 58.5333 -167.9000 66° East 430 495 37,000  Level Anchorage Center
03:07PM 58.5667 -167.6833 73° East 430 495 37,000  Level Anchorage Center
03:08PM 58.6167 -167.4667 66° East 430 495 37,000  Level Anchorage Center
03:09PM 58.6500 -167.2500 73° East 430 495 37,000  Level Anchorage Center
03:10PM 58.7000 -167.0333 66° East 420 483 37,000  Level Anchorage Center
03:11PM 58.7333 -166.8167 73° East 420 483 37,000  Level Anchorage Center
03:12PM 58.7667 -166.5833 75° East 430 495 37,000  Level Anchorage Center
03:13PM 58.8167 -166.3833 64° Northeast 420 483 37,000  Level Anchorage Center
03:14PM 58.8500 -166.1667 73° East 420 483 37,000  Level Anchorage Center
03:15PM 58.8833 -165.9500 73° East 420 483 37,000  Level Anchorage Center
03:16PM 58.9167 -165.7333 73° East 420 483 37,000  Level Anchorage Center
03:17PM 58.9667 -165.5167 66° East 420 483 37,000  Level Anchorage Center
03:18PM 59.0000 -165.3000 73° East 420 483 37,000  Level Anchorage Center
03:19PM 59.0333 -165.0833 73° East 420 483 37,000  Level Anchorage Center
03:19PM 59.0500 -165.0000 69° East 420 483 37,000  Level Anchorage Center
03:20PM 59.0833 -164.7667 74° East 430 495 37,000  Level Anchorage Center
03:21PM 59.1333 -164.5500 66° East 430 495 37,000  Level Anchorage Center
03:22PM 59.1667 -164.3333 73° East 420 483 37,000  Level Anchorage Center
03:23PM 59.2000 -164.1167 73° East 430 495 37,000  Level Anchorage Center
03:24PM 59.2333 -163.8833 74° East 420 483 37,000  Level Anchorage Center
03:25PM 59.2667 -163.6667 73° East 420 483 37,000  Level Anchorage Center
03:26PM 59.3000 -163.4500 73° East 420 483 37,000  Level Anchorage Center
03:27PM 59.3333 -163.2333 73° East 420 483 37,000  Level Anchorage Center
03:28PM 59.3667 -163.0000 74° East 420 483 37,000  Level Anchorage Center
03:29PM 59.4167 -162.7833 66° East 410 472 37,000  Level Anchorage Center
03:30PM 59.4500 -162.5667 73° East 410 472 37,000  Level Anchorage Center
03:31PM 59.4833 -162.3500 73° East 420 483 37,000  Level Anchorage Center
03:32PM 59.5167 -162.1167 74° East 410 472 37,000  Level Anchorage Center
03:33PM 59.5500 -161.9000 73° East 410 472 37,000  Level Anchorage Center
03:34PM 59.5833 -161.6833 73° East 420 483 37,000  Level Anchorage Center
03:35PM 59.6333 -161.4667 65° Northeast 420 483 37,000  Level Anchorage Center
03:36PM 59.6667 -161.2333 74° East 430 495 37,000  Level Anchorage Center
03:37PM 59.7000 -161.0167 73° East 420 483 37,000  Level Anchorage Center
03:38PM 59.7333 -160.7833 74° East 420 483 37,000  Level Anchorage Center
03:40PM 59.7667 -160.5667 73° East 420 483 37,000  Level Anchorage Center
03:41PM 59.8000 -160.3333 74° East 430 495 37,000  Level Anchorage Center
03:42PM 59.8333 -160.1000 74° East 430 495 37,000  Level Anchorage Center
03:43PM 59.8667 -159.8667 74° East 440 506 37,000  Level Anchorage Center
03:44PM 59.9000 -159.6333 74° East 430 495 37,000  Level Anchorage Center
03:45PM 59.9333 -159.4000 74° East 430 495 37,000  Level Anchorage Center
03:46PM 59.9667 -159.1667 74° East 430 495 37,000  Level Anchorage Center
03:47PM 60.0000 -158.9333 74° East 430 495 37,000  Level Anchorage Center
03:48PM 60.0333 -158.7000 74° East 430 495 37,000  Level Anchorage Center
03:49PM 60.0500 -158.4667 82° East 430 495 37,000  Level Anchorage Center
03:50PM 60.0833 -158.2333 74° East 440 506 37,000  Level Anchorage Center
03:51PM 60.1167 -157.9500 77° East 430 495 37,000  Level Anchorage Center
03:52PM 60.1500 -157.7500 71° East 430 495 37,000  Level Anchorage Center
03:53PM 60.1833 -157.4667 77° East 440 506 37,000  Level Anchorage Center
03:54PM 60.2167 -157.2167 75° East 440 506 37,000  Level Anchorage Center
03:55PM 60.2333 -156.9833 82° East 450 518 37,000  Level Anchorage Center
03:56PM 60.2667 -156.7333 75° East 450 518 37,000  Level Anchorage Center
03:57PM 60.3000 -156.4833 75° East 450 518 37,000  Level Anchorage Center
03:58PM 60.3333 -156.2333 75° East 450 518 37,000  Level Anchorage Center
03:59PM 60.3500 -155.9833 82° East 450 518 37,000  Level Anchorage Center
04:00PM 60.3833 -155.7500 74° East 450 518 37,000 -540 Level Anchorage Center
04:05PM 60.5560 -154.4380 74° East 404 465 33,800 -660 Descending FlightAware
04:06PM 60.5740 -154.2780 77° East 400 460 33,100 -1,080 Descending FlightAware
04:06PM 60.5930 -154.1140 77° East 403 464 32,400 -1,020 Descending FlightAware
04:07PM 60.6080 -153.9800 77° East 401 461 31,800 -960 Descending FlightAware
04:08PM 60.6250 -153.8340 77° East 402 463 31,200 -1,020 Descending FlightAware
04:08PM 60.6400 -153.6920 78° East 404 465 30,500 -1,440 Descending FlightAware
04:09PM 60.6590 -153.5200 77° East 403 464 29,200 -2,160 Descending FlightAware
04:10PM 60.6750 -153.3770 77° East 404 465 27,500 -1,680 Descending FlightAware
04:10PM 60.6800 -153.3320 77° East 405 466 27,100 -1,620 Descending FlightAware
04:11PM 60.6980 -153.1560 78° East 395 455 25,200 -2,940 Descending FlightAware
04:12PM 60.7250 -152.8990 78° East 383 441 22,500 -3,000 Descending FlightAware
04:12PM 60.7370 -152.7870 78° East 381 438 21,400 -1,500 Descending FlightAware
04:13PM 60.7520 -152.6350 79° East 371 427 20,600 -1,500 Descending FlightAware
04:14PM 60.7660 -152.4960 78° East 364 419 19,300 -2,220 Descending FlightAware
04:15PM 60.7810 -152.3510 78° East 364 419 17,500 -2,580 Descending FlightAware
04:15PM 60.7970 -152.1890 78° East 368 423 15,500 -2,460 Descending FlightAware
04:16PM 60.8080 -152.0740 79° East 365 420 14,200 -2,220 Descending FlightAware
04:17PM 60.8220 -151.9330 78° East 356 410 12,700 -1,380 Descending FlightAware
04:17PM 60.8340 -151.8010 79° East 323 372 12,300 -600 Descending FlightAware
04:18PM 60.8450 -151.6810 79° East 295 339 11,900 -780 Descending FlightAware
04:19PM 60.8550 -151.5810 78° East 287 330 11,300 -1,020 Descending FlightAware
04:19PM 60.8650 -151.4710 79° East 277 319 10,600 -900 Descending FlightAware
04:20PM 60.8760 -151.3650 78° East 271 312 10,100 -480 Descending FlightAware
04:21PM 60.8940 -151.2780 67° East 268 308 10,000 -360 Descending FlightAware
04:21PM 60.9040 -151.2310 66° East 265 305 9,800 -780 Descending FlightAware
04:21PM 60.9140 -151.1860 65° Northeast 262 302 9,500 -840 Descending FlightAware
04:22PM 60.9260 -151.1330 65° Northeast 257 296 9,200 -720 Descending FlightAware
04:22PM 60.9340 -151.0910 69° East 255 293 9,000 -720 Descending FlightAware
04:22PM 60.9410 -151.0590 66° East 257 296 8,800 -1,200 Descending FlightAware
04:23PM 60.9540 -150.9990 66° East 256 295 8,200 -1,500 Descending FlightAware
04:23PM 60.9670 -150.9370 67° East 253 291 7,500 -1,140 Descending FlightAware
04:24PM 60.9820 -150.8650 67° East 244 281 7,100 -840 Descending FlightAware
04:24PM 60.9930 -150.8130 66° East 238 274 6,700 -1,020 Descending FlightAware
04:24PM 60.9970 -150.7920 69° East 235 270 6,500 -720 Descending FlightAware
04:25PM 61.0160 -150.7030 66° East 232 267 6,100 -600 Descending FlightAware
04:25PM 61.0240 -150.6620 68° East 228 262 5,900 -600 Descending FlightAware
04:26PM 61.0340 -150.6170 65° Northeast 227 261 5,700 -360 Descending FlightAware
04:26PM 61.0360 -150.6040 72° East 227 261 5,700 -540 Level FlightAware
04:26PM 61.0490 -150.5440 66° East 232 267 5,400 -600 Descending FlightAware
04:27PM 61.0570 -150.5050 67° East 229 264 5,300 -420 Descending FlightAware
04:27PM 61.0620 -150.4810 67° East 234 269 5,200 -480 Descending FlightAware
04:27PM 61.0730 -150.4270 67° East 238 274 5,000 -300 Descending FlightAware
04:28PM 61.0820 -150.3840 67° East 239 275 5,000  Level FlightAware
04:28PM 61.0930 -150.3300 67° East 242 278 5,000  Level FlightAware
04:29PM 61.1060 -150.2660 67° East 246 283 5,000  Level FlightAware
04:29PM 61.1220 -150.2160 56° Northeast 235 270 5,000  Level FlightAware
04:29PM 61.1390 -150.2050 17° North 244 281 5,000 120 Level FlightAware
04:30PM 61.1640 -150.2150 349° North 260 299 5,100  Climbing FlightAware
04:31PM 61.1940 -150.2310 346° North 265 305 5,000 -660 Descending FlightAware
04:31PM 61.2600 -150.2650 346° North 251 289 4,200 -1,980 Descending FlightAware
04:31PM 61.2850 -150.2760 348° North 246 283 3,600 -1,440 Descending FlightAware
04:32PM 61.3040 -150.2600 22° Northeast 229 264 3,200 -960 Descending FlightAware
04:32PM 61.3080 -150.2510 47° Northeast 226 260 3,200 -180 Level FlightAware
04:32PM 61.3180 -150.1960 69° East 202 232 3,100 -240 Descending FlightAware
04:33PM 61.3250 -150.1550 70° East 173 199 3,000 -420 Descending FlightAware
04:33PM 61.3090 -150.1090 126° Southeast 181 208 2,700 -780 Descending FlightAware
04:34PM 61.2890 -150.0780 143° Southeast 186 214 2,200 -1,080 Descending FlightAware
04:34PM 61.2700 -150.0550 150° Southeast 187 215 1,700 -1,020 Descending FlightAware
04:35PM 61.2480 -150.0420 164° South 154 177 1,300 -900 Descending FlightAware
04:35PM 61.2360 -150.0340 162° South 147 169 1,000 -900 Descending FlightAware
04:35PM 61.2220 -150.0270 166° South 143 165 700 -900 Descending FlightAware
04:36PM 61.2040 -150.0170 165° South 146 168 300 -900 Descending FlightAware
04:36PM 61.1880 -150.0080 165° South 100 115 -720 Descending FlightAware
04:37PM 61.1780 -150.0030 166° South 100 115  Level FlightAware
04:37PM 61.1790 -150.0020 26° Northeast 146 168  Level FlightAware
04:37PM 61.1780 -150.0000 136° Southeast 27 31  Level FlightAware
04:38PM 61.1800 -150.0000 360° North 17 20  Level FlightAware
04:38PM 61.1820 -150.0010 346° North 22 25  Level FlightAware
04:39PM 61.1880 -150.0040 346° North 30 35  Level FlightAware
04:40PM 61.1910 -150.0060 342° North 31 36  Level FlightAware
04:40PM 61.1920 -150.0040 44° Northeast 23 26  Level FlightAware
04:40PM 61.1920 -150.0030 90° East 26 30  Level FlightAware
04:41PM 61.1940 -150.0040 346° North 25 29  Level FlightAware
04:41PM 61.1940 -150.0050 270° West 17 20  Level FlightAware
04:41PM 61.1790 -150.0020 174° South 146 168  Level FlightAware
04:42PM 61.1640 -149.9940 166° South 146 168  Level FlightAware
04:42PM 61.1630 -149.9930 154° Southeast 146 168  Level FlightAware